sensor_id;sensor_type;location;lat;lon;timestamp;temperature;humidity
21489;DHT22;10906;45.194;5.684;2022-10-31T06:01:10;12.80;99.90
21489;DHT22;10906;45.194;5.684;2022-10-31T06:03:54;12.70;99.90
21489;DHT22;10906;45.194;5.684;2022-10-31T06:06:39;12.70;99.90
21489;DHT22;10906;45.194;5.684;2022-10-31T06:09:27;12.70;99.90
21489;DHT22;10906;45.194;5.684;2022-10-31T06:12:11;12.70;99.90
21489;DHT22;10906;45.194;5.684;2022-10-31T06:14:55;12.60;99.90
21489;DHT22;10906;45.194;5.684;2022-10-31T06:17:40;12.60;99.90
21489;DHT22;10906;45.194;5.684;2022-10-31T06:20:27;12.60;99.90
21489;DHT22;10906;45.194;5.684;2022-10-31T06:23:12;12.50;99.90
21489;DHT22;10906;45.194;5.684;2022-10-31T06:25:56;12.50;99.90
21489;DHT22;10906;45.194;5.684;2022-10-31T06:28:41;12.50;99.90
21489;DHT22;10906;45.194;5.684;2022-10-31T06:31:25;12.50;99.90
21489;DHT22;10906;45.194;5.684;2022-10-31T06:34:10;12.50;99.90
21489;DHT22;10906;45.194;5.684;2022-10-31T06:36:55;12.50;99.90
21489;DHT22;10906;45.194;5.684;2022-10-31T06:39:39;12.40;99.90
21489;DHT22;10906;45.194;5.684;2022-10-31T06:42:24;12.80;99.90
21489;DHT22;10906;45.194;5.684;2022-10-31T06:45:09;12.40;99.90
21489;DHT22;10906;45.194;5.684;2022-10-31T06:47:54;12.40;99.90
21489;DHT22;10906;45.194;5.684;2022-10-31T06:50:39;12.40;99.90
21489;DHT22;10906;45.194;5.684;2022-10-31T06:53:23;12.30;99.90
21489;DHT22;10906;45.194;5.684;2022-10-31T06:56:08;12.30;99.90
21489;DHT22;10906;45.194;5.684;2022-10-31T06:58:52;12.30;99.90
21489;DHT22;10906;45.194;5.684;2022-10-31T07:01:37;12.30;99.90
21489;DHT22;10906;45.194;5.684;2022-10-31T07:04:22;12.30;99.90
21489;DHT22;10906;45.194;5.684;2022-10-31T07:07:06;12.30;99.90
21489;DHT22;10906;45.194;5.684;2022-10-31T07:09:51;12.30;99.90
21489;DHT22;10906;45.194;5.684;2022-10-31T07:12:35;12.90;99.90
21489;DHT22;10906;45.194;5.684;2022-10-31T07:15:20;12.30;99.90
21489;DHT22;10906;45.194;5.684;2022-10-31T07:18:07;12.20;99.90
21489;DHT22;10906;45.194;5.684;2022-10-31T07:20:52;12.30;99.90
21489;DHT22;10906;45.194;5.684;2022-10-31T07:23:37;12.30;99.90
21489;DHT22;10906;45.194;5.684;2022-10-31T07:26:21;12.30;99.90
21489;DHT22;10906;45.194;5.684;2022-10-31T07:29:06;12.50;99.90
21489;DHT22;10906;45.194;5.684;2022-10-31T07:31:50;12.50;99.90
21489;DHT22;10906;45.194;5.684;2022-10-31T07:34:35;12.60;99.90
21489;DHT22;10906;45.194;5.684;2022-10-31T07:37:19;12.70;99.90
21489;DHT22;10906;45.194;5.684;2022-10-31T07:40:05;12.80;99.90
21489;DHT22;10906;45.194;5.684;2022-10-31T07:42:52;12.80;99.90
21489;DHT22;10906;45.194;5.684;2022-10-31T07:45:36;12.90;99.90
21489;DHT22;10906;45.194;5.684;2022-10-31T07:48:21;12.90;99.90
21489;DHT22;10906;45.194;5.684;2022-10-31T07:51:05;13.00;99.90
21489;DHT22;10906;45.194;5.684;2022-10-31T07:53:51;13.00;99.90
21489;DHT22;10906;45.194;5.684;2022-10-31T07:56:35;13.10;99.90
21489;DHT22;10906;45.194;5.684;2022-10-31T07:59:19;13.10;99.90
21489;DHT22;10906;45.194;5.684;2022-10-31T08:02:04;13.20;99.90
21489;DHT22;10906;45.194;5.684;2022-10-31T08:04:48;13.30;99.90
21489;DHT22;10906;45.194;5.684;2022-10-31T08:07:36;13.40;99.90
21489;DHT22;10906;45.194;5.684;2022-10-31T08:10:22;13.50;99.90
21489;DHT22;10906;45.194;5.684;2022-10-31T08:13:12;13.60;99.90
21489;DHT22;10906;45.194;5.684;2022-10-31T08:15:57;13.70;99.90
21489;DHT22;10906;45.194;5.684;2022-10-31T08:18:47;13.80;99.90
21489;DHT22;10906;45.194;5.684;2022-10-31T08:21:31;15.00;99.90
21489;DHT22;10906;45.194;5.684;2022-10-31T08:24:16;14.00;99.90
21489;DHT22;10906;45.194;5.684;2022-10-31T08:27:01;14.20;99.90
21489;DHT22;10906;45.194;5.684;2022-10-31T08:29:45;14.30;99.90
21489;DHT22;10906;45.194;5.684;2022-10-31T08:32:30;14.40;99.90
21489;DHT22;10906;45.194;5.684;2022-10-31T08:35:14;14.60;99.90
21489;DHT22;10906;45.194;5.684;2022-10-31T08:40:43;14.70;99.90
21489;DHT22;10906;45.194;5.684;2022-10-31T08:43:32;14.80;99.90
21489;DHT22;10906;45.194;5.684;2022-10-31T08:46:17;14.80;99.90
21489;DHT22;10906;45.194;5.684;2022-10-31T08:49:01;14.80;99.90
21489;DHT22;10906;45.194;5.684;2022-10-31T08:51:49;14.90;99.90
21489;DHT22;10906;45.194;5.684;2022-10-31T08:54:33;15.00;99.90
21489;DHT22;10906;45.194;5.684;2022-10-31T08:57:17;15.10;99.90
21489;DHT22;10906;45.194;5.684;2022-10-31T09:00:03;15.20;99.90
21489;DHT22;10906;45.194;5.684;2022-10-31T09:02:47;15.30;99.90
21489;DHT22;10906;45.194;5.684;2022-10-31T09:05:33;15.60;99.90
21489;DHT22;10906;45.194;5.684;2022-10-31T09:11:03;15.80;99.90
21489;DHT22;10906;45.194;5.684;2022-10-31T09:13:47;15.90;99.90
21489;DHT22;10906;45.194;5.684;2022-10-31T09:16:31;16.00;99.90
21489;DHT22;10906;45.194;5.684;2022-10-31T09:19:15;16.10;99.90
21489;DHT22;10906;45.194;5.684;2022-10-31T09:22:00;16.20;99.90
21489;DHT22;10906;45.194;5.684;2022-10-31T09:24:44;16.30;99.90
21489;DHT22;10906;45.194;5.684;2022-10-31T09:27:28;15.90;99.90
21489;DHT22;10906;45.194;5.684;2022-10-31T09:30:12;16.80;99.90
21489;DHT22;10906;45.194;5.684;2022-10-31T09:32:59;17.00;99.90
21489;DHT22;10906;45.194;5.684;2022-10-31T09:35:44;17.30;99.90
21489;DHT22;10906;45.194;5.684;2022-10-31T09:38:28;17.50;99.90
21489;DHT22;10906;45.194;5.684;2022-10-31T09:44:46;17.80;99.90
21489;DHT22;10906;45.194;5.684;2022-10-31T09:47:59;17.90;99.90
21489;DHT22;10906;45.194;5.684;2022-10-31T09:50:45;18.00;99.90
21489;DHT22;10906;45.194;5.684;2022-10-31T09:56:38;18.40;99.90
21489;DHT22;10906;45.194;5.684;2022-10-31T09:59:34;18.50;99.90
21489;DHT22;10906;45.194;5.684;2022-10-31T10:05:17;18.80;99.90
21489;DHT22;10906;45.194;5.684;2022-10-31T10:08:08;19.00;99.90
21489;DHT22;10906;45.194;5.684;2022-10-31T10:26:20;20.50;99.90
21489;DHT22;10906;45.194;5.684;2022-10-31T10:29:23;20.60;99.90
21489;DHT22;10906;45.194;5.684;2022-10-31T10:32:14;20.70;99.90
21489;DHT22;10906;45.194;5.684;2022-10-31T10:41:18;21.00;99.90
21489;DHT22;10906;45.194;5.684;2022-10-31T10:44:07;21.20;99.90
21489;DHT22;10906;45.194;5.684;2022-10-31T10:46:56;21.40;99.90
21489;DHT22;10906;45.194;5.684;2022-10-31T10:52:37;21.50;99.90
21489;DHT22;10906;45.194;5.684;2022-10-31T10:56:11;21.50;99.90
21489;DHT22;10906;45.194;5.684;2022-10-31T10:58:59;21.40;99.90
21489;DHT22;10906;45.194;5.684;2022-10-31T11:01:43;21.40;99.90
21489;DHT22;10906;45.194;5.684;2022-10-31T11:04:38;21.40;99.90
21489;DHT22;10906;45.194;5.684;2022-10-31T11:07:24;21.40;99.90
21489;DHT22;10906;45.194;5.684;2022-10-31T11:10:13;21.40;99.90
21489;DHT22;10906;45.194;5.684;2022-10-31T11:18:47;21.30;99.90
21489;DHT22;10906;45.194;5.684;2022-10-31T11:21:32;21.20;99.90
21489;DHT22;10906;45.194;5.684;2022-10-31T11:24:26;21.20;99.90
21489;DHT22;10906;45.194;5.684;2022-10-31T11:27:19;22.20;99.90
21489;DHT22;10906;45.194;5.684;2022-10-31T11:30:05;21.30;99.90
21489;DHT22;10906;45.194;5.684;2022-10-31T11:32:51;21.20;99.90
21489;DHT22;10906;45.194;5.684;2022-10-31T11:35:39;21.20;99.90
21489;DHT22;10906;45.194;5.684;2022-10-31T11:38:34;21.00;99.90
21489;DHT22;10906;45.194;5.684;2022-10-31T11:41:32;20.90;99.90
21489;DHT22;10906;45.194;5.684;2022-10-31T11:44:28;20.80;99.90
21489;DHT22;10906;45.194;5.684;2022-10-31T11:47:17;20.80;99.90
21489;DHT22;10906;45.194;5.684;2022-10-31T11:50:11;20.60;99.90
21489;DHT22;10906;45.194;5.684;2022-10-31T11:52:58;20.60;99.90
21489;DHT22;10906;45.194;5.684;2022-10-31T11:55:43;20.70;99.90
21489;DHT22;10906;45.194;5.684;2022-10-31T11:58:28;20.60;99.90
21489;DHT22;10906;45.194;5.684;2022-10-31T12:01:25;20.60;99.90
21489;DHT22;10906;45.194;5.684;2022-10-31T12:04:11;20.60;99.90
21489;DHT22;10906;45.194;5.684;2022-10-31T12:06:57;20.70;99.90
21489;DHT22;10906;45.194;5.684;2022-10-31T12:09:41;20.70;99.90
21489;DHT22;10906;45.194;5.684;2022-10-31T12:13:03;20.70;99.90
21489;DHT22;10906;45.194;5.684;2022-10-31T12:15:50;20.60;99.90
21489;DHT22;10906;45.194;5.684;2022-10-31T12:22:03;20.50;99.90
21489;DHT22;10906;45.194;5.684;2022-10-31T12:37:15;20.50;99.90
21489;DHT22;10906;45.194;5.684;2022-10-31T12:59:01;20.90;99.90
21489;DHT22;10906;45.194;5.684;2022-10-31T13:05:03;20.90;99.90
21489;DHT22;10906;45.194;5.684;2022-10-31T13:13:55;21.00;99.90
21489;DHT22;10906;45.194;5.684;2022-10-31T13:16:44;21.00;99.90
21489;DHT22;10906;45.194;5.684;2022-10-31T13:19:43;21.00;99.90
21489;DHT22;10906;45.194;5.684;2022-10-31T13:22:31;21.00;99.90
21489;DHT22;10906;45.194;5.684;2022-10-31T13:25:24;21.00;99.90
21489;DHT22;10906;45.194;5.684;2022-10-31T13:31:04;21.10;99.90
21489;DHT22;10906;45.194;5.684;2022-10-31T13:34:03;21.10;99.90
21489;DHT22;10906;45.194;5.684;2022-10-31T13:36:59;21.10;99.90
21489;DHT22;10906;45.194;5.684;2022-10-31T13:43:00;21.10;99.90
21489;DHT22;10906;45.194;5.684;2022-10-31T13:45:52;21.10;99.90
21489;DHT22;10906;45.194;5.684;2022-10-31T13:48:39;21.10;99.90
21489;DHT22;10906;45.194;5.684;2022-10-31T13:51:27;21.10;99.90
21489;DHT22;10906;45.194;5.684;2022-10-31T13:54:32;21.20;99.90
21489;DHT22;10906;45.194;5.684;2022-10-31T13:57:38;21.20;99.90
21489;DHT22;10906;45.194;5.684;2022-10-31T14:00:26;21.20;99.90
21489;DHT22;10906;45.194;5.684;2022-10-31T14:03:18;21.30;99.90
21489;DHT22;10906;45.194;5.684;2022-10-31T14:06:04;21.30;99.90
21489;DHT22;10906;45.194;5.684;2022-10-31T14:08:51;21.20;99.90
21489;DHT22;10906;45.194;5.684;2022-10-31T14:11:36;21.30;99.90
21489;DHT22;10906;45.194;5.684;2022-10-31T14:14:23;21.30;99.90
21489;DHT22;10906;45.194;5.684;2022-10-31T14:17:19;21.20;99.90
21489;DHT22;10906;45.194;5.684;2022-10-31T14:22:54;21.20;99.90
21489;DHT22;10906;45.194;5.684;2022-10-31T14:25:38;21.10;99.90
21489;DHT22;10906;45.194;5.684;2022-10-31T14:28:33;21.10;99.90
21489;DHT22;10906;45.194;5.684;2022-10-31T14:31:31;21.20;99.90
21489;DHT22;10906;45.194;5.684;2022-10-31T14:34:37;21.20;99.90
21489;DHT22;10906;45.194;5.684;2022-10-31T14:47:08;21.30;99.90
21489;DHT22;10906;45.194;5.684;2022-10-31T14:52:48;20.70;99.90
21489;DHT22;10906;45.194;5.684;2022-10-31T14:55:33;21.10;99.90
21489;DHT22;10906;45.194;5.684;2022-10-31T15:01:35;21.40;99.90
21489;DHT22;10906;45.194;5.684;2022-10-31T15:04:28;21.40;99.90
21489;DHT22;10906;45.194;5.684;2022-10-31T15:07:17;21.30;99.90
21489;DHT22;10906;45.194;5.684;2022-10-31T15:10:05;21.20;99.90
21489;DHT22;10906;45.194;5.684;2022-10-31T15:12:50;21.00;99.90
21489;DHT22;10906;45.194;5.684;2022-10-31T15:15:35;20.80;99.90
21489;DHT22;10906;45.194;5.684;2022-10-31T15:18:23;20.80;99.90
21489;DHT22;10906;45.194;5.684;2022-10-31T15:21:08;20.60;99.90
21489;DHT22;10906;45.194;5.684;2022-10-31T15:23:55;20.40;99.90
21489;DHT22;10906;45.194;5.684;2022-10-31T15:26:43;20.30;99.90
21489;DHT22;10906;45.194;5.684;2022-10-31T15:29:28;20.20;99.90
21489;DHT22;10906;45.194;5.684;2022-10-31T15:32:27;20.00;99.90
21489;DHT22;10906;45.194;5.684;2022-10-31T15:35:31;19.90;99.90
21489;DHT22;10906;45.194;5.684;2022-10-31T15:38:15;19.90;99.90
21489;DHT22;10906;45.194;5.684;2022-10-31T15:41:17;19.80;99.90
21489;DHT22;10906;45.194;5.684;2022-10-31T15:44:19;19.70;99.90
21489;DHT22;10906;45.194;5.684;2022-10-31T15:47:06;19.50;99.90
21489;DHT22;10906;45.194;5.684;2022-10-31T15:49:58;19.60;99.90
21489;DHT22;10906;45.194;5.684;2022-10-31T15:52:45;19.40;99.90
21489;DHT22;10906;45.194;5.684;2022-10-31T15:55:36;19.40;99.90
21489;DHT22;10906;45.194;5.684;2022-10-31T15:58:21;19.30;99.90
21489;DHT22;10906;45.194;5.684;2022-10-31T16:07:00;18.70;99.90
21489;DHT22;10906;45.194;5.684;2022-10-31T16:09:50;19.00;99.90
21489;DHT22;10906;45.194;5.684;2022-10-31T16:12:44;19.00;99.90
21489;DHT22;10906;45.194;5.684;2022-10-31T16:15:29;18.50;99.90
21489;DHT22;10906;45.194;5.684;2022-10-31T16:18:13;18.40;99.90
21489;DHT22;10906;45.194;5.684;2022-10-31T16:20:58;18.70;99.90
21489;DHT22;10906;45.194;5.684;2022-10-31T16:23:47;18.70;99.90
21489;DHT22;10906;45.194;5.684;2022-10-31T16:26:34;18.60;99.90
21489;DHT22;10906;45.194;5.684;2022-10-31T16:29:28;18.40;99.90
21489;DHT22;10906;45.194;5.684;2022-10-31T16:32:52;18.30;99.90
21489;DHT22;10906;45.194;5.684;2022-10-31T16:35:38;18.20;99.90
21489;DHT22;10906;45.194;5.684;2022-10-31T16:38:23;18.10;99.90
21489;DHT22;10906;45.194;5.684;2022-10-31T16:41:08;18.00;99.90
21489;DHT22;10906;45.194;5.684;2022-10-31T16:43:52;17.90;99.90
21489;DHT22;10906;45.194;5.684;2022-10-31T16:46:37;17.80;99.90
21489;DHT22;10906;45.194;5.684;2022-10-31T16:49:22;17.70;99.90
21489;DHT22;10906;45.194;5.684;2022-10-31T16:54:51;17.60;99.90
21489;DHT22;10906;45.194;5.684;2022-10-31T16:57:36;17.60;99.90
21489;DHT22;10906;45.194;5.684;2022-10-31T17:00:25;17.50;99.90
21489;DHT22;10906;45.194;5.684;2022-10-31T17:03:10;17.50;99.90
21489;DHT22;10906;45.194;5.684;2022-10-31T17:05:54;17.40;99.90
21489;DHT22;10906;45.194;5.684;2022-10-31T17:08:40;17.40;99.90
21489;DHT22;10906;45.194;5.684;2022-10-31T17:11:25;17.30;99.90
21489;DHT22;10906;45.194;5.684;2022-10-31T17:14:10;17.10;99.90
21489;DHT22;10906;45.194;5.684;2022-10-31T17:16:55;17.10;99.90
21489;DHT22;10906;45.194;5.684;2022-10-31T17:19:40;17.00;99.90
21489;DHT22;10906;45.194;5.684;2022-10-31T17:22:25;16.90;99.90
21489;DHT22;10906;45.194;5.684;2022-10-31T17:25:20;16.80;99.90
21489;DHT22;10906;45.194;5.684;2022-10-31T17:28:05;16.80;99.90
21489;DHT22;10906;45.194;5.684;2022-10-31T17:30:50;16.70;99.90
21489;DHT22;10906;45.194;5.684;2022-10-31T17:33:34;16.80;99.90
21489;DHT22;10906;45.194;5.684;2022-10-31T17:36:18;16.70;99.90
21489;DHT22;10906;45.194;5.684;2022-10-31T17:39:04;16.60;99.90
21489;DHT22;10906;45.194;5.684;2022-10-31T17:41:50;16.50;99.90
21489;DHT22;10906;45.194;5.684;2022-10-31T17:44:35;16.50;99.90
21489;DHT22;10906;45.194;5.684;2022-10-31T17:47:20;16.50;99.90
21489;DHT22;10906;45.194;5.684;2022-10-31T17:50:05;16.50;99.90
21489;DHT22;10906;45.194;5.684;2022-10-31T17:52:50;16.50;99.90
21489;DHT22;10906;45.194;5.684;2022-10-31T17:55:34;16.40;99.90
21489;DHT22;10906;45.194;5.684;2022-10-31T17:58:19;16.40;99.90
21489;DHT22;10906;45.194;5.684;2022-10-31T18:01:09;16.40;99.90
21489;DHT22;10906;45.194;5.684;2022-10-31T18:03:53;16.40;99.90
21489;DHT22;10906;45.194;5.684;2022-10-31T18:06:37;16.30;99.90
21489;DHT22;10906;45.194;5.684;2022-10-31T18:09:21;16.20;99.90
21489;DHT22;10906;45.194;5.684;2022-10-31T18:12:06;16.20;99.90
21489;DHT22;10906;45.194;5.684;2022-10-31T18:14:51;16.10;99.90
21489;DHT22;10906;45.194;5.684;2022-10-31T18:17:36;16.10;99.90
21489;DHT22;10906;45.194;5.684;2022-10-31T18:20:20;16.00;99.90
21489;DHT22;10906;45.194;5.684;2022-10-31T18:23:04;16.00;99.90
21489;DHT22;10906;45.194;5.684;2022-10-31T18:25:49;15.90;99.90
21489;DHT22;10906;45.194;5.684;2022-10-31T18:28:33;15.90;99.90
21489;DHT22;10906;45.194;5.684;2022-10-31T18:31:19;15.80;99.90
21489;DHT22;10906;45.194;5.684;2022-10-31T18:34:03;15.90;99.90
21489;DHT22;10906;45.194;5.684;2022-10-31T18:36:48;15.80;99.90
21489;DHT22;10906;45.194;5.684;2022-10-31T18:42:17;15.80;99.90
21489;DHT22;10906;45.194;5.684;2022-10-31T18:45:01;15.80;99.90
21489;DHT22;10906;45.194;5.684;2022-10-31T18:47:46;15.80;99.90
21489;DHT22;10906;45.194;5.684;2022-10-31T18:50:29;15.70;99.90
21489;DHT22;10906;45.194;5.684;2022-10-31T18:53:14;15.80;99.90
21489;DHT22;10906;45.194;5.684;2022-10-31T18:55:59;15.70;99.90
21489;DHT22;10906;45.194;5.684;2022-10-31T18:58:43;15.70;99.90
21489;DHT22;10906;45.194;5.684;2022-10-31T19:01:29;15.70;99.90
21489;DHT22;10906;45.194;5.684;2022-10-31T19:04:13;15.70;99.90
21489;DHT22;10906;45.194;5.684;2022-10-31T19:06:57;15.70;99.90
21489;DHT22;10906;45.194;5.684;2022-10-31T19:09:42;15.60;99.90
21489;DHT22;10906;45.194;5.684;2022-10-31T19:12:27;15.40;99.90
21489;DHT22;10906;45.194;5.684;2022-10-31T19:15:11;15.30;99.90
21489;DHT22;10906;45.194;5.684;2022-10-31T19:17:55;15.30;99.90
21489;DHT22;10906;45.194;5.684;2022-10-31T19:20:39;15.30;99.90
21489;DHT22;10906;45.194;5.684;2022-10-31T19:23:24;15.30;99.90
21489;DHT22;10906;45.194;5.684;2022-10-31T19:26:08;15.30;99.90
21489;DHT22;10906;45.194;5.684;2022-10-31T19:28:54;15.20;99.90
21489;DHT22;10906;45.194;5.684;2022-10-31T19:31:38;15.30;99.90
21489;DHT22;10906;45.194;5.684;2022-10-31T19:34:23;15.30;99.90
21489;DHT22;10906;45.194;5.684;2022-10-31T19:37:07;15.30;99.90
21489;DHT22;10906;45.194;5.684;2022-10-31T19:39:51;15.30;99.90
21489;DHT22;10906;45.194;5.684;2022-10-31T19:42:36;15.40;99.90
21489;DHT22;10906;45.194;5.684;2022-10-31T19:45:20;15.40;99.90
21489;DHT22;10906;45.194;5.684;2022-10-31T19:48:04;15.50;99.90
21489;DHT22;10906;45.194;5.684;2022-10-31T19:50:49;15.50;99.90
21489;DHT22;10906;45.194;5.684;2022-10-31T19:53:34;15.50;99.90
21489;DHT22;10906;45.194;5.684;2022-10-31T19:56:21;15.60;99.90
21489;DHT22;10906;45.194;5.684;2022-10-31T19:59:06;15.60;99.90
21489;DHT22;10906;45.194;5.684;2022-10-31T20:01:51;15.70;99.90
21489;DHT22;10906;45.194;5.684;2022-10-31T20:04:36;15.70;99.90
21489;DHT22;10906;45.194;5.684;2022-10-31T20:07:20;15.70;99.90
21489;DHT22;10906;45.194;5.684;2022-10-31T20:10:05;15.90;99.90
21489;DHT22;10906;45.194;5.684;2022-10-31T20:12:51;16.20;99.90
21489;DHT22;10906;45.194;5.684;2022-10-31T20:15:36;16.40;99.90
21489;DHT22;10906;45.194;5.684;2022-10-31T20:18:20;16.60;99.90
21489;DHT22;10906;45.194;5.684;2022-10-31T20:21:07;16.90;96.00
21489;DHT22;10906;45.194;5.684;2022-10-31T20:23:56;17.10;99.90
21489;DHT22;10906;45.194;5.684;2022-10-31T20:26:40;17.40;99.70
21489;DHT22;10906;45.194;5.684;2022-10-31T20:29:25;17.60;99.10
21489;DHT22;10906;45.194;5.684;2022-10-31T20:32:10;17.80;98.40
21489;DHT22;10906;45.194;5.684;2022-10-31T20:34:54;17.90;98.00
21489;DHT22;10906;45.194;5.684;2022-10-31T20:37:39;18.10;97.20
21489;DHT22;10906;45.194;5.684;2022-10-31T20:40:23;18.40;96.20
21489;DHT22;10906;45.194;5.684;2022-10-31T20:43:09;18.60;96.00
21489;DHT22;10906;45.194;5.684;2022-10-31T20:46:05;18.80;94.80
21489;DHT22;10906;45.194;5.684;2022-10-31T20:48:50;19.20;92.50
21489;DHT22;10906;45.194;5.684;2022-10-31T20:51:35;19.50;93.00
21489;DHT22;10906;45.194;5.684;2022-10-31T20:54:20;19.80;92.00
21489;DHT22;10906;45.194;5.684;2022-10-31T20:57:04;20.00;91.20
21489;DHT22;10906;45.194;5.684;2022-10-31T20:59:48;20.10;90.90
21489;DHT22;10906;45.194;5.684;2022-10-31T21:02:33;20.30;89.10
21489;DHT22;10906;45.194;5.684;2022-10-31T21:05:17;20.40;87.60
21489;DHT22;10906;45.194;5.684;2022-10-31T21:08:01;20.60;87.10
21489;DHT22;10906;45.194;5.684;2022-10-31T21:10:46;20.60;85.50
21489;DHT22;10906;45.194;5.684;2022-10-31T21:13:33;20.70;84.10
21489;DHT22;10906;45.194;5.684;2022-10-31T21:16:24;20.90;82.80
21489;DHT22;10906;45.194;5.684;2022-10-31T21:19:09;21.60;80.30
21489;DHT22;10906;45.194;5.684;2022-10-31T21:21:54;20.80;81.50
21489;DHT22;10906;45.194;5.684;2022-10-31T21:24:38;20.90;80.50
21489;DHT22;10906;45.194;5.684;2022-10-31T21:27:22;21.00;79.00
21489;DHT22;10906;45.194;5.684;2022-10-31T21:30:07;21.20;78.20
21489;DHT22;10906;45.194;5.684;2022-10-31T21:32:52;21.20;77.50
21489;DHT22;10906;45.194;5.684;2022-10-31T21:35:36;21.20;76.00
21489;DHT22;10906;45.194;5.684;2022-10-31T21:38:21;21.20;76.70
21489;DHT22;10906;45.194;5.684;2022-10-31T21:41:11;21.10;76.10
21489;DHT22;10906;45.194;5.684;2022-10-31T21:43:57;21.10;75.30
21489;DHT22;10906;45.194;5.684;2022-10-31T21:46:41;21.00;74.50
21489;DHT22;10906;45.194;5.684;2022-10-31T21:49:27;21.00;74.20
21489;DHT22;10906;45.194;5.684;2022-10-31T21:52:11;21.00;73.50
21489;DHT22;10906;45.194;5.684;2022-10-31T21:54:56;21.00;73.00
21489;DHT22;10906;45.194;5.684;2022-10-31T21:57:40;21.10;72.40
21489;DHT22;10906;45.194;5.684;2022-10-31T22:00:24;21.00;71.80
21489;DHT22;10906;45.194;5.684;2022-10-31T22:03:09;21.10;70.70
21489;DHT22;10906;45.194;5.684;2022-10-31T22:05:53;21.10;71.50
21489;DHT22;10906;45.194;5.684;2022-10-31T22:08:38;21.00;70.60
21489;DHT22;10906;45.194;5.684;2022-10-31T22:11:23;21.00;70.80
21489;DHT22;10906;45.194;5.684;2022-10-31T22:14:12;20.90;70.40
21489;DHT22;10906;45.194;5.684;2022-10-31T22:16:57;20.80;71.40
21489;DHT22;10906;45.194;5.684;2022-10-31T22:19:41;20.80;70.90
21489;DHT22;10906;45.194;5.684;2022-10-31T22:22:26;20.70;70.70
21489;DHT22;10906;45.194;5.684;2022-10-31T22:25:10;20.60;70.40
21489;DHT22;10906;45.194;5.684;2022-10-31T22:27:54;20.50;70.40
21489;DHT22;10906;45.194;5.684;2022-10-31T22:30:39;20.50;70.20
21489;DHT22;10906;45.194;5.684;2022-10-31T22:33:24;20.50;70.30
21489;DHT22;10906;45.194;5.684;2022-10-31T22:36:21;20.40;70.20
21489;DHT22;10906;45.194;5.684;2022-10-31T22:39:06;20.40;70.10
21489;DHT22;10906;45.194;5.684;2022-10-31T22:41:50;20.40;70.10
21489;DHT22;10906;45.194;5.684;2022-10-31T22:44:35;20.50;69.50
21489;DHT22;10906;45.194;5.684;2022-10-31T22:47:20;20.80;68.60
21489;DHT22;10906;45.194;5.684;2022-10-31T22:50:04;21.00;68.20
21489;DHT22;10906;45.194;5.684;2022-10-31T22:52:49;21.10;67.80
21489;DHT22;10906;45.194;5.684;2022-10-31T22:55:33;21.20;67.00
21489;DHT22;10906;45.194;5.684;2022-10-31T22:58:18;21.30;66.60
